Time;durP1;ratioP1;P1;durP2;ratioP2;P2;SDS_P1;SDS_P2;PMS_P1;PMS_P2;Temp;Humidity;BMP_temperature;BMP_pressure;BME280_temperature;BME280_humidity;BME280_pressure;Samples;Min_cycle;Max_cycle;Signal;HPM_P1;HPM_P2
2023/06/01 00:01:48;;;;;;;2.80;2.13;;;;;;;;;;5095165;28;20448;-58
2023/06/01 00:04:16;;;;;;;4.13;2.73;;;;;;;;;;5095140;28;20833;-58
2023/06/01 00:06:43;;;;;;;5.57;2.23;;;;;;;;;;5094844;28;20488;-58
2023/06/01 00:09:10;;;;;;;2.87;2.50;;;;;;;;;;5095202;28;20427;-58
2023/06/01 00:11:37;;;;;;;2.30;2.10;;;;;;;;;;5094709;28;20437;-58
2023/06/01 00:14:05;;;;;;;3.63;1.90;;;;;;;;;;5094973;28;20414;-58
2023/06/01 00:16:32;;;;;;;3.50;2.40;;;;;;;;;;5094849;28;20451;-59
2023/06/01 00:19:01;;;;;;;2.60;2.40;;;;;;;;;;5094803;28;20459;-59
2023/06/01 00:21:28;;;;;;;8.73;2.40;;;;;;;;;;5094642;28;20423;-59
2023/06/01 00:23:55;;;;;;;3.03;2.67;;;;;;;;;;5094853;28;20961;-60
2023/06/01 00:26:22;;;;;;;2.20;2.00;;;;;;;;;;5094591;28;20489;-59
2023/06/01 00:28:49;;;;;;;2.90;2.30;;;;;;;;;;5094734;28;20451;-59
2023/06/01 00:31:17;;;;;;;2.23;2.03;;;;;;;;;;5094549;28;20459;-58
2023/06/01 00:33:44;;;;;;;2.40;2.20;;;;;;;;;;5094457;28;20539;-59
2023/06/01 00:36:11;;;;;;;2.23;1.97;;;;;;;;;;5094591;28;20543;-58
2023/06/01 00:38:38;;;;;;;2.73;2.53;;;;;;;;;;5094522;28;20447;-58
2023/06/01 00:41:05;;;;;;;3.00;2.70;;;;;;;;;;5094529;28;20421;-58
2023/06/01 00:43:32;;;;;;;2.50;2.30;;;;;;;;;;5094441;28;20474;-58
2023/06/01 00:45:59;;;;;;;4.43;2.87;;;;;;;;;;5094173;28;20512;-58
2023/06/01 00:48:27;;;;;;;2.57;2.37;;;;;;;;;;5094147;28;20459;-58
2023/06/01 00:50:56;;;;;;;2.77;2.53;;;;;;;;;;5094326;28;20451;-58
2023/06/01 00:53:23;;;;;;;4.03;2.67;;;;;;;;;;5094263;28;20782;-58
2023/06/01 00:55:50;;;;;;;4.07;2.60;;;;;;;;;;5094004;28;20563;-58
2023/06/01 00:58:17;;;;;;;3.40;3.00;;;;;;;;;;5094119;28;20423;-58
2023/06/01 01:00:47;;;;;;;4.13;2.60;;;;;;;;;;5094041;28;20806;-58
2023/06/01 01:03:15;;;;;;;4.80;2.20;;;;;;;;;;5093920;28;20444;-58
2023/06/01 01:05:44;;;;;;;2.60;2.40;;;;;;;;;;5093953;28;20476;-58
2023/06/01 01:08:15;;;;;;;2.90;2.47;;;;;;;;;;5093924;28;20429;-58
2023/06/01 01:10:45;;;;;;;3.57;2.80;;;;;;;;;;5093904;28;20431;-58
2023/06/01 01:13:15;;;;;;;2.13;2.03;;;;;;;;;;5093705;28;20450;-58
2023/06/01 01:15:45;;;;;;;4.60;2.53;;;;;;;;;;5093543;28;20871;-58
2023/06/01 01:18:17;;;;;;;3.37;2.60;;;;;;;;;;5093599;28;20786;-58
2023/06/01 01:20:48;;;;;;;4.10;2.50;;;;;;;;;;5093787;28;20434;-58
2023/06/01 01:23:24;;;;;;;3.97;2.77;;;;;;;;;;5092970;28;20422;-58
2023/06/01 01:26:02;;;;;;;3.90;2.97;;;;;;;;;;5093358;28;20468;-59
2023/06/01 01:28:34;;;;;;;2.70;2.50;;;;;;;;;;5093646;28;20419;-59
2023/06/01 01:31:01;;;;;;;3.27;2.80;;;;;;;;;;5093485;28;20423;-58
2023/06/01 01:33:29;;;;;;;5.70;2.80;;;;;;;;;;5093459;28;20449;-58
2023/06/01 01:35:56;;;;;;;7.53;2.60;;;;;;;;;;5093318;28;20426;-58
2023/06/01 01:38:22;;;;;;;3.50;2.70;;;;;;;;;;5093191;28;20448;-59
2023/06/01 01:40:52;;;;;;;7.27;2.97;;;;;;;;;;5093426;28;20476;-59
2023/06/01 01:43:19;;;;;;;8.93;2.63;;;;;;;;;;5093114;28;20965;-58
2023/06/01 01:45:50;;;;;;;3.40;2.43;;;;;;;;;;5093202;28;20487;-58
2023/06/01 01:48:23;;;;;;;3.30;2.57;;;;;;;;;;5093151;28;20448;-58
2023/06/01 01:50:52;;;;;;;2.83;2.63;;;;;;;;;;5093138;28;20424;-58
2023/06/01 01:53:19;;;;;;;2.90;2.50;;;;;;;;;;5093255;28;20455;-58
2023/06/01 01:55:47;;;;;;;2.93;2.60;;;;;;;;;;5092947;28;20480;-58
2023/06/01 01:58:14;;;;;;;2.90;2.33;;;;;;;;;;5093027;28;20456;-58
2023/06/01 02:00:43;;;;;;;2.67;2.47;;;;;;;;;;5093405;28;20497;-58
2023/06/01 02:03:16;;;;;;;3.43;2.90;;;;;;;;;;5093009;28;20524;-58
2023/06/01 02:05:43;;;;;;;2.70;2.50;;;;;;;;;;5092779;28;20485;-58
2023/06/01 02:08:11;;;;;;;6.33;2.83;;;;;;;;;;5092816;28;21046;-58
2023/06/01 02:10:37;;;;;;;5.03;2.60;;;;;;;;;;5092958;28;20812;-58
2023/06/01 02:13:04;;;;;;;4.13;2.87;;;;;;;;;;5092893;28;20456;-58
2023/06/01 02:15:31;;;;;;;3.90;2.43;;;;;;;;;;5092755;28;20957;-58
2023/06/01 02:17:59;;;;;;;7.80;3.00;;;;;;;;;;5092653;28;20534;-58
2023/06/01 02:20:27;;;;;;;4.03;2.90;;;;;;;;;;5092966;28;20449;-58
2023/06/01 02:22:54;;;;;;;2.80;2.60;;;;;;;;;;5092920;28;20483;-58
2023/06/01 02:25:21;;;;;;;3.30;2.60;;;;;;;;;;5092772;28;20443;-57
2023/06/01 02:27:47;;;;;;;5.53;2.57;;;;;;;;;;5092784;28;20551;-58
2023/06/01 02:30:15;;;;;;;4.47;2.23;;;;;;;;;;5092679;28;20418;-58
2023/06/01 02:32:44;;;;;;;3.20;2.53;;;;;;;;;;5092722;28;20962;-58
2023/06/01 02:35:11;;;;;;;3.27;2.80;;;;;;;;;;5096832;28;20492;-58
2023/06/01 02:37:39;;;;;;;3.30;2.47;;;;;;;;;;5096786;28;20460;-58
2023/06/01 02:40:10;;;;;;;4.83;3.10;;;;;;;;;;5096719;28;20903;-58
2023/06/01 02:42:37;;;;;;;4.23;2.77;;;;;;;;;;5096643;28;20451;-58
2023/06/01 02:45:05;;;;;;;3.10;2.80;;;;;;;;;;5096434;28;20811;-58
2023/06/01 02:47:33;;;;;;;3.17;2.97;;;;;;;;;;5096478;28;20878;-58
2023/06/01 02:50:00;;;;;;;3.50;2.53;;;;;;;;;;5096631;28;20513;-58
2023/06/01 02:52:27;;;;;;;3.40;3.07;;;;;;;;;;5096490;28;20514;-58
2023/06/01 02:54:56;;;;;;;4.20;3.03;;;;;;;;;;5096246;28;20429;-58
2023/06/01 02:57:23;;;;;;;3.87;2.30;;;;;;;;;;5096271;28;20459;-58
2023/06/01 02:59:50;;;;;;;3.07;2.83;;;;;;;;;;5096190;28;20985;-58
2023/06/01 03:02:17;;;;;;;3.83;2.90;;;;;;;;;;5096368;28;20429;-58
2023/06/01 03:04:45;;;;;;;3.70;2.70;;;;;;;;;;5096227;28;20453;-58
2023/06/01 03:07:12;;;;;;;4.33;3.43;;;;;;;;;;5095957;28;20490;-58
2023/06/01 03:09:40;;;;;;;5.60;3.30;;;;;;;;;;5096020;28;20459;-58
2023/06/01 03:12:08;;;;;;;3.93;2.43;;;;;;;;;;5096027;28;20480;-58
2023/06/01 03:14:35;;;;;;;3.67;2.50;;;;;;;;;;5096157;28;20833;-58
2023/06/01 03:17:02;;;;;;;3.83;3.00;;;;;;;;;;5095931;28;20455;-58
2023/06/01 03:19:29;;;;;;;3.13;2.20;;;;;;;;;;5095983;28;20483;-58
2023/06/01 03:21:56;;;;;;;3.27;2.70;;;;;;;;;;5095842;28;20547;-58
2023/06/01 03:24:27;;;;;;;6.13;2.77;;;;;;;;;;5095779;28;20426;-58
2023/06/01 03:26:54;;;;;;;2.60;2.40;;;;;;;;;;5095483;28;20496;-58
2023/06/01 03:29:23;;;;;;;4.60;2.73;;;;;;;;;;5095913;28;20861;-59
2023/06/01 03:31:50;;;;;;;4.03;2.60;;;;;;;;;;5095724;28;20544;-58
2023/06/01 03:34:17;;;;;;;3.67;3.03;;;;;;;;;;5095678;28;20430;-58
2023/06/01 03:36:47;;;;;;;2.97;2.70;;;;;;;;;;5095645;28;20449;-59
2023/06/01 03:39:15;;;;;;;5.17;2.73;;;;;;;;;;5095734;28;20448;-59
2023/06/01 03:41:44;;;;;;;5.53;2.97;;;;;;;;;;5095676;28;20488;-59
2023/06/01 03:44:11;;;;;;;6.43;3.27;;;;;;;;;;5095570;28;20459;-60
2023/06/01 03:46:40;;;;;;;3.80;2.70;;;;;;;;;;5094848;28;20544;-59
2023/06/01 03:49:07;;;;;;;6.00;2.87;;;;;;;;;;5095264;28;20425;-59
2023/06/01 03:51:35;;;;;;;2.87;2.67;;;;;;;;;;5095417;28;20843;-59
2023/06/01 03:54:02;;;;;;;4.47;3.30;;;;;;;;;;5095277;28;20430;-59
2023/06/01 03:56:30;;;;;;;3.53;2.90;;;;;;;;;;5095098;28;20459;-59
2023/06/01 03:58:57;;;;;;;2.83;2.63;;;;;;;;;;5095431;28;21012;-59
2023/06/01 04:01:29;;;;;;;3.90;2.73;;;;;;;;;;5095067;28;20838;-59
2023/06/01 04:03:57;;;;;;;5.73;3.03;;;;;;;;;;5095114;28;20457;-58
2023/06/01 04:06:24;;;;;;;6.70;3.10;;;;;;;;;;5094900;28;20971;-59
2023/06/01 04:08:55;;;;;;;6.37;3.37;;;;;;;;;;5095193;28;20517;-59
2023/06/01 04:11:23;;;;;;;6.67;3.20;;;;;;;;;;5095119;28;20517;-59
2023/06/01 04:13:50;;;;;;;4.70;3.57;;;;;;;;;;5094831;28;20452;-58
2023/06/01 04:16:17;;;;;;;5.17;3.17;;;;;;;;;;5095023;28;20428;-59
2023/06/01 04:18:44;;;;;;;7.90;3.30;;;;;;;;;;5094660;28;20445;-59
2023/06/01 04:21:13;;;;;;;4.33;3.40;;;;;;;;;;5094981;28;20444;-59
2023/06/01 04:23:42;;;;;;;11.70;4.60;;;;;;;;;;5094911;28;20454;-60
2023/06/01 04:26:09;;;;;;;7.97;5.07;;;;;;;;;;5094137;28;20925;-60
2023/06/01 04:28:43;;;;;;;3.97;3.57;;;;;;;;;;5094699;28;20776;-58
2023/06/01 04:31:16;;;;;;;4.33;3.80;;;;;;;;;;5094592;28;20847;-59
2023/06/01 04:33:44;;;;;;;8.90;5.60;;;;;;;;;;5094547;28;20453;-58
2023/06/01 04:36:12;;;;;;;10.20;3.80;;;;;;;;;;5094630;28;20496;-59
2023/06/01 04:38:41;;;;;;;8.57;3.90;;;;;;;;;;5094696;28;20543;-58
2023/06/01 04:41:09;;;;;;;5.50;4.20;;;;;;;;;;5094529;28;20793;-59
2023/06/01 04:43:38;;;;;;;9.33;4.60;;;;;;;;;;5094288;28;21004;-58
2023/06/01 04:46:05;;;;;;;9.93;5.57;;;;;;;;;;5094413;28;20431;-60
2023/06/01 04:48:32;;;;;;;10.63;4.50;;;;;;;;;;5094395;28;20798;-58
2023/06/01 04:51:04;;;;;;;12.83;5.90;;;;;;;;;;5094352;28;20487;-58
2023/06/01 04:53:32;;;;;;;7.40;5.50;;;;;;;;;;5094283;28;20424;-59
2023/06/01 04:55:59;;;;;;;9.70;5.33;;;;;;;;;;5093395;28;20507;-59
2023/06/01 04:58:26;;;;;;;9.90;5.17;;;;;;;;;;5093263;28;20951;-59
2023/06/01 05:00:54;;;;;;;7.63;4.23;;;;;;;;;;5094191;28;20829;-58
2023/06/01 05:03:21;;;;;;;13.50;6.00;;;;;;;;;;5094125;28;20451;-59
2023/06/01 05:05:48;;;;;;;9.27;5.20;;;;;;;;;;5093836;28;20422;-59
2023/06/01 05:08:15;;;;;;;6.97;5.27;;;;;;;;;;5093688;28;21017;-59
2023/06/01 05:10:43;;;;;;;9.70;5.00;;;;;;;;;;5093834;28;20422;-58
2023/06/01 05:13:10;;;;;;;7.60;5.53;;;;;;;;;;5093922;28;20431;-58
2023/06/01 05:15:37;;;;;;;9.37;5.60;;;;;;;;;;5093966;28;20452;-59
2023/06/01 05:18:04;;;;;;;7.87;5.87;;;;;;;;;;5093845;28;20815;-59
2023/06/01 05:20:31;;;;;;;13.23;7.20;;;;;;;;;;5093793;28;20429;-59
2023/06/01 05:23:00;;;;;;;7.83;5.97;;;;;;;;;;5093762;28;20474;-59
2023/06/01 05:25:28;;;;;;;9.53;7.10;;;;;;;;;;5093571;28;20452;-58
2023/06/01 05:27:57;;;;;;;12.20;6.73;;;;;;;;;;5093650;28;20483;-59
2023/06/01 05:30:24;;;;;;;7.00;6.03;;;;;;;;;;5093466;28;20449;-60
2023/06/01 05:32:51;;;;;;;8.97;6.40;;;;;;;;;;5093406;28;21009;-60
2023/06/01 05:35:18;;;;;;;10.23;6.70;;;;;;;;;;5093385;28;20464;-58
2023/06/01 05:37:45;;;;;;;8.67;7.00;;;;;;;;;;5093464;28;20452;-58
2023/06/01 05:40:12;;;;;;;8.53;6.73;;;;;;;;;;5093237;28;20463;-59
2023/06/01 05:42:39;;;;;;;9.37;7.03;;;;;;;;;;5093386;28;20436;-59
2023/06/01 05:45:09;;;;;;;10.70;7.40;;;;;;;;;;5093455;28;20458;-59
2023/06/01 05:47:36;;;;;;;9.53;7.57;;;;;;;;;;5093298;28;20453;-59
2023/06/01 05:50:04;;;;;;;12.90;8.43;;;;;;;;;;5093352;28;20543;-59
2023/06/01 05:52:31;;;;;;;9.33;8.27;;;;;;;;;;5093104;28;20455;-59
2023/06/01 05:54:58;;;;;;;9.90;8.10;;;;;;;;;;5092998;28;20935;-60
2023/06/01 05:57:25;;;;;;;14.90;8.10;;;;;;;;;;5093463;28;20537;-61
2023/06/01 05:59:53;;;;;;;14.27;10.40;;;;;;;;;;5093079;28;20881;-58
2023/06/01 06:02:21;;;;;;;13.20;9.30;;;;;;;;;;5093212;28;20918;-59
2023/06/01 06:04:48;;;;;;;24.20;11.80;;;;;;;;;;5093144;28;20933;-60
2023/06/01 06:07:19;;;;;;;12.97;11.57;;;;;;;;;;5092937;28;20562;-60
2023/06/01 06:09:46;;;;;;;16.30;11.40;;;;;;;;;;5093019;28;20930;-59
2023/06/01 06:12:13;;;;;;;12.10;10.70;;;;;;;;;;5093172;28;20970;-60
2023/06/01 06:14:40;;;;;;;20.63;11.77;;;;;;;;;;5093014;28;20463;-60
2023/06/01 06:17:07;;;;;;;12.20;10.30;;;;;;;;;;5092874;28;20994;-59
2023/06/01 06:19:35;;;;;;;15.63;10.73;;;;;;;;;;5092973;28;20547;-61
2023/06/01 06:22:02;;;;;;;17.70;13.00;;;;;;;;;;5093161;28;20447;-58
2023/06/01 06:24:29;;;;;;;15.57;12.77;;;;;;;;;;5092749;28;20808;-59
2023/06/01 06:26:56;;;;;;;17.00;13.30;;;;;;;;;;5092756;28;20430;-59
2023/06/01 06:29:23;;;;;;;15.07;12.30;;;;;;;;;;5092810;28;20426;-61
2023/06/01 06:31:50;;;;;;;15.67;12.20;;;;;;;;;;5092752;28;20454;-59
2023/06/01 06:34:17;;;;;;;15.10;13.00;;;;;;;;;;5092810;28;20422;-60
2023/06/01 06:36:48;;;;;;;13.63;12.27;;;;;;;;;;5092969;28;20452;-60
2023/06/01 06:39:15;;;;;;;10.90;9.70;;;;;;;;;;5092918;28;20429;-59
2023/06/01 06:41:42;;;;;;;15.43;12.33;;;;;;;;;;5092947;28;20426;-58
2023/06/01 06:44:09;;;;;;;18.30;12.80;;;;;;;;;;5092760;28;20431;-60
2023/06/01 06:46:36;;;;;;;15.97;12.90;;;;;;;;;;5092883;28;20810;-63
2023/06/01 06:49:03;;;;;;;14.03;11.83;;;;;;;;;;5092471;28;20505;-59
2023/06/01 06:51:30;;;;;;;14.83;13.23;;;;;;;;;;5092497;28;21036;-60
2023/06/01 06:54:02;;;;;;;17.53;14.60;;;;;;;;;;5092665;28;20871;-60
2023/06/01 06:56:31;;;;;;;15.03;12.23;;;;;;;;;;5092266;28;20520;-58
2023/06/01 06:58:58;;;;;;;19.90;13.23;;;;;;;;;;5092511;28;20555;-59
2023/06/01 07:01:27;;;;;;;15.57;11.00;;;;;;;;;;5092153;28;20517;-59
2023/06/01 07:03:55;;;;;;;14.43;11.00;;;;;;;;;;5092315;28;20509;-59
2023/06/01 07:06:22;;;;;;;12.57;10.00;;;;;;;;;;5092425;28;20450;-57
2023/06/01 07:08:49;;;;;;;10.67;9.57;;;;;;;;;;5092400;28;20821;-60
2023/06/01 07:11:17;;;;;;;10.20;7.73;;;;;;;;;;5092772;28;20501;-59
2023/06/01 07:13:44;;;;;;;11.20;8.80;;;;;;;;;;5092243;28;20489;-59
2023/06/01 07:16:12;;;;;;;15.43;9.40;;;;;;;;;;5092420;28;20476;-59
2023/06/01 07:18:39;;;;;;;16.40;10.17;;;;;;;;;;5092490;28;20858;-59
2023/06/01 07:21:06;;;;;;;9.83;8.87;;;;;;;;;;5094701;28;20475;-59
2023/06/01 07:23:33;;;;;;;12.80;9.87;;;;;;;;;;5095874;28;20517;-59
2023/06/01 07:26:00;;;;;;;16.30;10.00;;;;;;;;;;5095751;28;20982;-58
2023/06/01 07:28:29;;;;;;;12.67;8.70;;;;;;;;;;5095628;28;20484;-59
2023/06/01 07:30:56;;;;;;;11.67;8.20;;;;;;;;;;5095888;28;20540;-60
2023/06/01 07:33:25;;;;;;;12.27;7.80;;;;;;;;;;5095851;28;20545;-60
2023/06/01 07:35:52;;;;;;;9.30;6.57;;;;;;;;;;5095729;28;20458;-60
2023/06/01 07:38:19;;;;;;;8.20;5.60;;;;;;;;;;5095641;28;20503;-58
2023/06/01 07:40:46;;;;;;;9.83;7.53;;;;;;;;;;5095547;28;20456;-58
2023/06/01 07:43:13;;;;;;;7.83;6.50;;;;;;;;;;5096081;28;20513;-65
2023/06/01 07:45:42;;;;;;;10.70;7.20;;;;;;;;;;5094333;28;20829;-61
2023/06/01 07:48:10;;;;;;;11.37;7.37;;;;;;;;;;5094019;28;20447;-60
2023/06/01 07:50:37;;;;;;;11.07;6.87;;;;;;;;;;5095313;28;20444;-62
2023/06/01 07:53:04;;;;;;;11.83;7.30;;;;;;;;;;5095163;28;20977;-59
2023/06/01 07:55:31;;;;;;;17.00;8.23;;;;;;;;;;5095005;28;20986;-60
2023/06/01 07:57:58;;;;;;;10.45;6.93;;;;;;;;;;5095147;28;20517;-60
2023/06/01 08:00:26;;;;;;;10.40;6.67;;;;;;;;;;5095164;28;20191;-60
2023/06/01 08:02:54;;;;;;;8.90;5.73;;;;;;;;;;5095207;28;20454;-61
2023/06/01 08:05:21;;;;;;;9.33;6.80;;;;;;;;;;5094997;28;20481;-60
2023/06/01 08:07:48;;;;;;;9.73;6.88;;;;;;;;;;5094101;28;20446;-60
2023/06/01 08:10:16;;;;;;;9.03;6.10;;;;;;;;;;5094784;28;20187;-60
2023/06/01 08:12:43;;;;;;;7.63;6.07;;;;;;;;;;5095113;28;20527;-60
2023/06/01 08:15:12;;;;;;;20.67;7.73;;;;;;;;;;5094948;28;20456;-60
2023/06/01 08:17:40;;;;;;;7.57;6.40;;;;;;;;;;5094768;28;20484;-61
2023/06/01 08:20:10;;;;;;;6.13;5.53;;;;;;;;;;5094715;28;20486;-60
2023/06/01 08:22:38;;;;;;;10.37;6.90;;;;;;;;;;5094743;28;20453;-60
2023/06/01 08:25:05;;;;;;;10.93;6.20;;;;;;;;;;5094502;28;20451;-60
2023/06/01 08:27:32;;;;;;;12.57;6.80;;;;;;;;;;5094509;28;20501;-60
2023/06/01 08:29:59;;;;;;;9.50;6.70;;;;;;;;;;5094505;28;20496;-60
2023/06/01 08:32:26;;;;;;;5.63;4.80;;;;;;;;;;5094460;28;20943;-59
2023/06/01 08:34:53;;;;;;;6.63;5.00;;;;;;;;;;5094536;28;20456;-59
2023/06/01 08:37:21;;;;;;;6.50;5.83;;;;;;;;;;5094316;28;20457;-61
2023/06/01 08:39:48;;;;;;;11.07;4.97;;;;;;;;;;5094392;28;20452;-58
2023/06/01 08:42:19;;;;;;;7.10;4.90;;;;;;;;;;5094431;28;20552;-60
2023/06/01 08:44:47;;;;;;;5.80;4.50;;;;;;;;;;5094443;28;20453;-60
2023/06/01 08:47:14;;;;;;;9.60;4.77;;;;;;;;;;5094054;28;20449;-59
2023/06/01 08:49:43;;;;;;;8.10;5.50;;;;;;;;;;5093861;28;20478;-60
2023/06/01 08:52:12;;;;;;;9.97;5.20;;;;;;;;;;5093956;28;20453;-60
2023/06/01 08:54:43;;;;;;;5.70;5.30;;;;;;;;;;5093940;28;20932;-61
2023/06/01 08:57:11;;;;;;;7.30;6.03;;;;;;;;;;5094170;28;20453;-60
2023/06/01 08:59:39;;;;;;;7.80;5.40;;;;;;;;;;5094000;28;20454;-60
2023/06/01 09:02:07;;;;;;;8.87;5.30;;;;;;;;;;5093726;28;20860;-61
2023/06/01 09:04:37;;;;;;;7.07;4.83;;;;;;;;;;5094199;28;20475;-60
2023/06/01 09:07:04;;;;;;;11.40;5.23;;;;;;;;;;5093900;28;20452;-60
2023/06/01 09:09:31;;;;;;;5.43;4.80;;;;;;;;;;5093640;28;20481;-60
2023/06/01 09:12:21;;;;;;;7.90;5.33;;;;;;;;;;5093772;28;20460;-59
2023/06/01 09:14:49;;;;;;;7.03;4.87;;;;;;;;;;5093568;28;20450;-60
2023/06/01 09:17:17;;;;;;;8.50;5.37;;;;;;;;;;5093890;28;20873;-61
2023/06/01 09:19:44;;;;;;;6.10;3.97;;;;;;;;;;5093791;28;20458;-59
2023/06/01 09:22:12;;;;;;;9.23;4.70;;;;;;;;;;5093468;28;20457;-60
2023/06/01 09:24:41;;;;;;;10.90;4.10;;;;;;;;;;5093349;28;20450;-59
2023/06/01 09:27:09;;;;;;;8.07;4.40;;;;;;;;;;5093217;28;20901;-59
2023/06/01 09:29:37;;;;;;;7.60;4.83;;;;;;;;;;5093451;28;20485;-59
2023/06/01 09:32:04;;;;;;;5.27;4.77;;;;;;;;;;5093195;28;20485;-57
2023/06/01 09:34:31;;;;;;;10.63;4.73;;;;;;;;;;5093502;28;20457;-58
2023/06/01 09:37:06;;;;;;;9.37;4.40;;;;;;;;;;5093185;28;20453;-59
2023/06/01 09:39:35;;;;;;;6.93;5.10;;;;;;;;;;5093399;28;20461;-58
2023/06/01 09:42:02;;;;;;;7.10;3.97;;;;;;;;;;5093394;28;20475;-59
2023/06/01 09:44:30;;;;;;;6.73;4.70;;;;;;;;;;5092587;28;20949;-58
2023/06/01 09:46:59;;;;;;;5.33;4.10;;;;;;;;;;5078260;28;20447;-58
2023/06/01 09:49:26;;;;;;;6.57;5.00;;;;;;;;;;5072708;28;20478;-59
2023/06/01 09:51:54;;;;;;;5.40;4.10;;;;;;;;;;5072642;28;20970;-59
2023/06/01 09:54:27;;;;;;;6.73;5.50;;;;;;;;;;5073139;28;20452;-59
2023/06/01 09:56:54;;;;;;;9.57;4.70;;;;;;;;;;5072683;28;20565;-58
2023/06/01 09:59:23;;;;;;;8.53;4.77;;;;;;;;;;5072775;28;20448;-58
2023/06/01 10:01:51;;;;;;;8.20;4.07;;;;;;;;;;5072740;28;20443;-58
2023/06/01 10:04:22;;;;;;;7.27;4.13;;;;;;;;;;5072625;28;20455;-60
2023/06/01 10:06:51;;;;;;;8.20;4.17;;;;;;;;;;5072553;28;20526;-61
2023/06/01 10:09:19;;;;;;;7.43;4.70;;;;;;;;;;5072475;28;20479;-59
2023/06/01 10:11:48;;;;;;;6.23;4.43;;;;;;;;;;5072713;28;20483;-59
2023/06/01 10:14:15;;;;;;;7.35;5.05;;;;;;;;;;5072569;28;20783;-59
2023/06/01 10:16:45;;;;;;;6.47;4.60;;;;;;;;;;5072595;28;20190;-61
2023/06/01 10:19:13;;;;;;;9.27;5.20;;;;;;;;;;5072420;28;21009;-58
2023/06/01 10:21:42;;;;;;;8.80;4.90;;;;;;;;;;5072128;28;20453;-59
2023/06/01 10:24:10;;;;;;;4.70;4.20;;;;;;;;;;5072340;28;20703;-59
2023/06/01 10:26:41;;;;;;;8.87;5.33;;;;;;;;;;5072339;28;20505;-59
2023/06/01 10:29:09;;;;;;;5.90;4.63;;;;;;;;;;5072283;28;20549;-58
2023/06/01 10:31:37;;;;;;;8.50;5.47;;;;;;;;;;5072293;28;20451;-59
2023/06/01 10:34:04;;;;;;;4.77;4.20;;;;;;;;;;5072290;28;20456;-59
2023/06/01 10:36:52;;;;;;;6.40;5.23;;;;;;;;;;5072127;28;20452;-58
2023/06/01 10:39:26;;;;;;;5.83;4.90;;;;;;;;;;5046920;28;20455;-56
2023/06/01 10:41:54;;;;;;;7.70;5.50;;;;;;;;;;5072301;28;20696;-59
2023/06/01 10:44:40;;;;;;;5.60;5.03;;;;;;;;;;5071934;28;20498;-59
2023/06/01 10:47:07;;;;;;;10.83;5.70;;;;;;;;;;5072280;28;20850;-56
2023/06/01 10:49:54;;;;;;;7.93;6.37;;;;;;;;;;5072188;28;20577;-61
2023/06/01 10:52:28;;;;;;;6.60;5.53;;;;;;;;;;5072081;28;20622;-59
2023/06/01 10:54:58;;;;;;;6.33;5.70;;;;;;;;;;5072525;28;20450;-56
2023/06/01 10:57:28;;;;;;;6.83;5.90;;;;;;;;;;5076033;28;20898;-55
2023/06/01 11:00:14;;;;;;;10.77;6.20;;;;;;;;;;5075987;28;20459;-59
2023/06/01 11:02:48;;;;;;;7.20;6.27;;;;;;;;;;5075896;28;20939;-60
2023/06/01 11:05:33;;;;;;;8.67;6.60;;;;;;;;;;5075716;28;20467;-58
2023/06/01 11:08:00;;;;;;;9.20;7.13;;;;;;;;;;5076106;28;20534;-58
2023/06/01 11:10:48;;;;;;;10.73;7.10;;;;;;;;;;5075423;28;20490;-55
2023/06/01 11:13:18;;;;;;;7.33;6.60;;;;;;;;;;5075589;28;20538;-60
2023/06/01 11:16:00;;;;;;;13.40;7.90;;;;;;;;;;5075646;28;20456;-59
2023/06/01 11:18:43;;;;;;;11.10;7.50;;;;;;;;;;5075543;28;20841;-59
2023/06/01 11:21:12;;;;;;;8.67;7.77;;;;;;;;;;5075667;28;20447;-57
2023/06/01 11:23:40;;;;;;;10.67;7.93;;;;;;;;;;5075456;28;20454;-60
2023/06/01 11:26:08;;;;;;;8.53;7.20;;;;;;;;;;5075516;28;20927;-59
2023/06/01 11:28:36;;;;;;;9.63;8.63;;;;;;;;;;5075622;28;20444;-58
2023/06/01 11:31:04;;;;;;;9.83;7.50;;;;;;;;;;5075515;28;20716;-57
2023/06/01 11:33:37;;;;;;;9.40;8.47;;;;;;;;;;5075497;28;20542;-59
2023/06/01 11:36:05;;;;;;;10.57;8.23;;;;;;;;;;5075165;28;20456;-57
2023/06/01 11:38:36;;;;;;;13.70;8.60;;;;;;;;;;5075271;28;20593;-59
2023/06/01 11:41:04;;;;;;;9.47;8.33;;;;;;;;;;5075194;28;20451;-60
2023/06/01 11:43:32;;;;;;;10.53;8.60;;;;;;;;;;5075343;28;20807;-59
2023/06/01 11:46:04;;;;;;;10.37;8.70;;;;;;;;;;5074861;28;20454;-60
2023/06/01 11:48:32;;;;;;;13.80;8.03;;;;;;;;;;5084366;28;20513;-60
2023/06/01 11:50:59;;;;;;;11.73;8.50;;;;;;;;;;5094937;28;20479;-59
2023/06/01 11:53:27;;;;;;;9.17;7.73;;;;;;;;;;5095471;28;20447;-60
2023/06/01 11:55:55;;;;;;;8.67;7.87;;;;;;;;;;5095117;28;20471;-59
2023/06/01 11:58:22;;;;;;;11.43;7.90;;;;;;;;;;5095254;28;20483;-60
2023/06/01 12:00:49;;;;;;;9.90;8.10;;;;;;;;;;5095218;28;20537;-60
2023/06/01 12:03:20;;;;;;;9.23;8.30;;;;;;;;;;5094990;28;20829;-59
2023/06/01 12:05:48;;;;;;;9.63;8.60;;;;;;;;;;5094547;28;20534;-58
2023/06/01 12:08:15;;;;;;;11.07;8.67;;;;;;;;;;5095010;28;20922;-60
2023/06/01 12:10:44;;;;;;;12.97;9.47;;;;;;;;;;5095000;28;20482;-59
2023/06/01 12:13:11;;;;;;;10.80;9.67;;;;;;;;;;5094878;28;20473;-59
2023/06/01 12:15:38;;;;;;;9.07;8.17;;;;;;;;;;5094764;28;20482;-57
2023/06/01 12:18:06;;;;;;;13.50;7.90;;;;;;;;;;5094666;28;20455;-59
2023/06/01 12:20:35;;;;;;;14.13;9.53;;;;;;;;;;5094836;28;20451;-60
2023/06/01 12:23:04;;;;;;;8.00;7.30;;;;;;;;;;5094792;28;20451;-60
2023/06/01 12:25:32;;;;;;;6.87;6.20;;;;;;;;;;5094695;28;20461;-61
2023/06/01 12:28:02;;;;;;;10.67;9.33;;;;;;;;;;5094728;28;20852;-60
2023/06/01 12:30:29;;;;;;;8.73;7.73;;;;;;;;;;5094795;28;20474;-60
2023/06/01 12:32:56;;;;;;;12.80;7.80;;;;;;;;;;5094785;28;20542;-60
2023/06/01 12:35:23;;;;;;;11.30;8.60;;;;;;;;;;5092350;28;20451;-58
2023/06/01 12:38:04;;;;;;;8.60;7.80;;;;;;;;;;5094355;28;20534;-57
2023/06/01 12:40:33;;;;;;;8.53;7.60;;;;;;;;;;5094395;28;20446;-58
2023/06/01 12:43:00;;;;;;;10.63;7.90;;;;;;;;;;5094077;28;20454;-59
2023/06/01 12:45:37;;;;;;;11.10;8.47;;;;;;;;;;5093777;28;21247;-58
2023/06/01 12:48:04;;;;;;;8.77;7.87;;;;;;;;;;5094450;28;20890;-58
2023/06/01 12:50:32;;;;;;;8.80;7.23;;;;;;;;;;5093968;28;20475;-60
2023/06/01 12:52:59;;;;;;;14.37;7.20;;;;;;;;;;5094136;28;20446;-59
2023/06/01 12:55:27;;;;;;;8.77;7.53;;;;;;;;;;5093871;28;20505;-60
2023/06/01 12:57:54;;;;;;;8.70;6.47;;;;;;;;;;5093845;28;20451;-60
2023/06/01 13:00:22;;;;;;;8.63;7.50;;;;;;;;;;5094050;28;20479;-59
2023/06/01 13:02:50;;;;;;;7.57;6.87;;;;;;;;;;5093850;28;20454;-59
2023/06/01 13:05:17;;;;;;;11.70;7.87;;;;;;;;;;5094068;28;20451;-60
2023/06/01 13:07:45;;;;;;;8.33;7.53;;;;;;;;;;5093790;28;20453;-60
2023/06/01 13:10:12;;;;;;;10.93;6.73;;;;;;;;;;5093605;28;20475;-60
2023/06/01 13:12:41;;;;;;;8.43;6.67;;;;;;;;;;5094007;28;20451;-60
2023/06/01 13:15:09;;;;;;;7.00;6.10;;;;;;;;;;5093775;28;20455;-60
2023/06/01 13:17:36;;;;;;;7.03;6.40;;;;;;;;;;5092591;28;20949;-60
2023/06/01 13:20:06;;;;;;;7.70;6.37;;;;;;;;;;5093364;28;20447;-60
2023/06/01 13:22:33;;;;;;;10.00;6.47;;;;;;;;;;5093530;28;20479;-60
2023/06/01 13:25:02;;;;;;;9.23;6.57;;;;;;;;;;5093676;28;20454;-60
2023/06/01 13:27:29;;;;;;;10.47;6.17;;;;;;;;;;5093468;28;20455;-60
2023/06/01 13:29:57;;;;;;;6.23;5.53;;;;;;;;;;5093326;28;20829;-60
2023/06/01 13:32:25;;;;;;;7.90;5.57;;;;;;;;;;5093312;28;20451;-60
2023/06/01 13:34:52;;;;;;;6.93;5.70;;;;;;;;;;5093269;28;20453;-60
2023/06/01 13:37:19;;;;;;;6.90;5.80;;;;;;;;;;5093030;28;20443;-60
2023/06/01 13:39:46;;;;;;;7.57;5.90;;;;;;;;;;5093386;28;20529;-59
2023/06/01 13:42:13;;;;;;;9.87;6.10;;;;;;;;;;5093275;28;20442;-60
2023/06/01 13:44:42;;;;;;;6.20;5.60;;;;;;;;;;5093071;28;20910;-59
2023/06/01 13:47:10;;;;;;;5.60;5.07;;;;;;;;;;5093074;28;20482;-60
2023/06/01 13:49:37;;;;;;;9.17;4.93;;;;;;;;;;5093000;28;20443;-60
2023/06/01 13:52:04;;;;;;;14.70;5.43;;;;;;;;;;5092963;28;20451;-60
2023/06/01 13:54:31;;;;;;;6.00;5.40;;;;;;;;;;5093079;28;20447;-60
2023/06/01 13:56:58;;;;;;;8.40;6.13;;;;;;;;;;5092671;28;20558;-60
2023/06/01 13:59:25;;;;;;;6.10;5.57;;;;;;;;;;5093023;28;21166;-60
2023/06/01 14:01:52;;;;;;;6.83;5.60;;;;;;;;;;5092891;28;20451;-60
2023/06/01 14:04:20;;;;;;;6.43;5.80;;;;;;;;;;5092759;28;20534;-60
2023/06/01 14:06:47;;;;;;;8.60;5.60;;;;;;;;;;5092788;28;20447;-60
2023/06/01 14:09:14;;;;;;;7.77;6.20;;;;;;;;;;5092959;28;20447;-60
2023/06/01 14:11:41;;;;;;;7.43;5.10;;;;;;;;;;5092739;28;20489;-60
2023/06/01 14:14:08;;;;;;;7.60;5.50;;;;;;;;;;5092891;28;20463;-60
2023/06/01 14:16:35;;;;;;;8.33;4.90;;;;;;;;;;5092598;28;20447;-60
2023/06/01 14:19:03;;;;;;;6.17;5.37;;;;;;;;;;5092973;28;20486;-60
2023/06/01 14:21:32;;;;;;;5.87;5.30;;;;;;;;;;5092872;28;20446;-59
2023/06/01 14:23:59;;;;;;;7.93;5.10;;;;;;;;;;5092811;28;20496;-59
2023/06/01 14:26:26;;;;;;;6.60;4.97;;;;;;;;;;5092666;28;20538;-60
2023/06/01 14:28:53;;;;;;;5.97;5.20;;;;;;;;;;5093229;28;20442;-60
2023/06/01 14:31:21;;;;;;;9.43;5.47;;;;;;;;;;5096652;28;20809;-60
2023/06/01 14:33:48;;;;;;;7.50;5.10;;;;;;;;;;5096688;28;21010;-60
2023/06/01 14:36:15;;;;;;;4.77;4.37;;;;;;;;;;5095932;28;20461;-60
2023/06/01 14:38:44;;;;;;;5.30;3.97;;;;;;;;;;5096550;28;20482;-60
2023/06/01 14:41:10;;;;;;;7.60;4.87;;;;;;;;;;5096382;28;20451;-60
2023/06/01 14:43:39;;;;;;;6.67;4.93;;;;;;;;;;5096685;28;20861;-60
2023/06/01 14:46:06;;;;;;;10.23;4.87;;;;;;;;;;5096253;28;20486;-60